Tiempo atmosférico en la estación meteorológica de Hellín, Albacete (520 m.)



Fecha
DESCASC
Temp. máxima en grados centígrados (hora)
DESCASC
Temp. mínima en grados centígrados (hora)
DESCASC
Temp. media en grados centígrados
DESCASC
Racha de viento máxima en m/sg (hora)
DESCASC
Velocidad máxima media en intervalos de 10 minutos(hora)
DESCASC
Precipitaciones diarias en mm
DESCASC
Precipitaciones de 00:00 a 06:00 en mm
DESCASC
Precipitaciones de 06:00 a 12:00 en mm
DESCASC
Precipitaciones de 12:00 a 18:00 en mm
DESCASC
Precipitaciones de 18:00 a 24:00 en mm
DESCASC
18-08-2019 37.1 (16:20) 21.2 (07:30) 29.1 8.61 (16:20) 5 (17:00) 0 0 0 0 0
17-08-2019 36.6 (15:40) 19.2 (07:00) 27.9 8.33 (18:00) 4.44 (18:10) 0 0 0 0 0
16-08-2019 33.8 (16:20) 18.2 (07:30) 26 8.06 (15:40) 3.89 (17:00) 0 0 0 0 0
15-08-2019 34.1 (17:30) 19.1 (00:00) 26.6 8.33 (18:50) 4.72 (18:40) 0 0 0 0 0
14-08-2019 33.7 (18:10) 18.7 (00:00) 26.2 9.72 (19:40) 5.83 (19:40) 0 0 0 0 0
13-08-2019 30.1 (16:30) 19.9 (00:00) 25 8.89 (14:00) 4.72 (18:40) 0 0 0 0 0
12-08-2019 32.2 (19:00) 19.6 (00:00) 25.9 10.83 (04:20) 6.67 (04:20) 0 0 0 0 0
11-08-2019 35.4 (16:10) 21.3 (00:00) 28.4 9.17 (17:30) 5 (18:00) 0 0 0 0 0
10-08-2019 37.3 (16:50) 22.4 (00:00) 29.8 10.83 (17:40) 4.72 (18:50) 0 0 0 0 0
09-08-2019 39.5 (17:20) 20.3 (00:00) 29.9 12.5 (18:40) 7.5 (18:40) 0 0 0 0 0
08-08-2019 37.2 (17:20) 22.2 (00:00) 29.7 8.61 (02:00) 5.28 (03:00) 0 0 0 0 0
07-08-2019 37.3 (16:00) 23.1 (00:00) 30.2 9.17 (05:10) 5 (05:10) 0 0 0 0 0
06-08-2019 38.2 (16:20) 20.1 (00:00) 29.2 8.61 (17:00) 4.17 (17:20) 0 0 0 0 0
05-08-2019 36.7 (16:10) 20.6 (00:00) 28.7 8.89 (19:00) 5.28 (18:50) 0 0 0 0 0
04-08-2019 36.2 (17:20) 19 (00:00) 27.6 7.22 (18:20) 3.89 (19:10) 0 0 0 0 0
03-08-2019 33.8 (17:00) 20.2 (00:00) 27 8.61 (19:40) 4.72 (18:40) 0 0 0 0 0
02-08-2019 33.4 (14:00) 19.4 (00:00) 26.4 8.89 (16:00) 4.44 (15:00) 0 0 0 0 0
01-08-2019 35.4 (18:10) 17.6 (00:00) 26.5 8.06 (20:50) 4.72 (20:20) 0 0 0 0 0
31-07-2019 29.4 (17:40) 19.9 (00:00) 24.6 9.72 (02:30) 4.17 (14:10) 0 0 0 0 0
30-07-2019 35.3 (16:00) 20.3 (00:00) 27.8 10.83 (15:50) 5.56 (18:50) 0 0 0 0 0
29-07-2019 34.7 (16:30) 18.1 (00:00) 26.4 8.33 (19:00) 4.72 (20:00) 0 0 0 0 0
28-07-2019 32.2 (17:40) 18.8 (00:00) 25.5 10.56 (01:30) 6.39 (01:30) 0 0 0 0 0
27-07-2019 30.9 (14:10) 20.6 (00:00) 25.8 13.89 (14:20) 8.06 (19:50) 0 0 0 0 0
26-07-2019 35.8 (17:30) 19.5 (00:00) 27.6 18.06 (17:30) 5.83 (19:50) 0 0 0 0 0
25-07-2019 34.9 (16:00) 18.9 (00:00) 26.9 8.61 (15:20) 4.44 (16:10) 0 0 0 0 0
24-07-2019 35.5 (16:00) 20.5 (00:00) 28 9.72 (16:50) 5.28 (16:10) 0 0 0 0 0
23-07-2019 35.5 (16:30) 19.6 (00:00) 27.6 9.17 (14:10) 4.72 (18:10) 0 0 0 0 0
22-07-2019 34.6 (17:00) 20.4 (00:00) 27.5 8.61 (17:10) 5 (16:10) 0 0 0 0 0
21-07-2019 34.8 (17:10) 20.1 (00:00) 27.4 9.17 (18:00) 5 (18:00) 0 0 0 0 0

Gráficas

Temp. máximas Temp. mínimas Temp. medias Precipitaciones Rachas de viento máximas Velocidades máximas media en intervalos de 10 minutos

Datos horarios

Fecha y hora oficial Temperatura (ºC) Velocidad del viento (km/h) Dirección del viento Racha (km/h) Dirección de racha Precipitación (mm) Presión (hPa) Tendencia (hPa) Humedad (%)
2019-08-19 23:00:00 23.9 7 Nordeste 14 Norte 0 947 1.9 83
2019-08-19 22:00:00 25.1 10 Nordeste 24 Nordeste 0 946.4 1.7 60
2019-08-19 21:00:00 26.6 11 Norte 22 Nordeste 0 945.6 1.2 53
2019-08-19 20:00:00 29.4 9 Norte 26 Nordeste 0 945.1 0.7 45
2019-08-19 19:00:00 30.8 18 Nordeste 35 Nordeste 0 944.7 0.1 39
2019-08-19 18:00:00 31.8 21 Nordeste 36 Nordeste 0 944.4 -0.7 35
2019-08-19 17:00:00 34.5 12 Norte 32 Nordeste 0 944.4 -1.3 31
2019-08-19 16:00:00 35.4 12 Nordeste 31 Nordeste 0 944.6 -1.6 27
2019-08-19 15:00:00 35.2 8 Nordeste 37 Norte 0 945.1 -1.5 27
2019-08-19 14:00:00 34.3 10 Nordeste 23 Norte 0 945.7 -0.8 27
2019-08-19 13:00:00 32 6 Noroeste 19 Noroeste 0 946.2 0 30
2019-08-19 12:00:00 31 6 Noroeste 17 Noroeste 0 946.6 0.6 33
2019-08-19 11:00:00 29.1 6 Noroeste 12 Noroeste 0 946.5 1 35
2019-08-19 10:00:00 28.4 5 Sudoeste 11 Sur 0 946.2 1.2 36
2019-08-19 09:00:00 25.7 6 Sudoeste 11 Sudoeste 0 946 1 39
2019-08-19 08:00:00 23 8 Sur 16 Sur 0 945.5 0.2 42
2019-08-19 07:00:00 22.5 8 Sur 14 Sudoeste 0 945 -0.2 41
2019-08-19 06:00:00 22.9 8 Sur 14 Sudoeste 0 945 -0.3 40
2019-08-19 05:00:00 23.4 9 Sudoeste 15 Sudoeste 0 945.3 -0.4 40
2019-08-19 04:00:00 24 9 Sudoeste 20 Sudoeste 0 945.2 -0.6 46
2019-08-19 03:00:00 24.4 9 Sudoeste 15 Sudoeste 0 945.3 -0.2 46
2019-08-19 02:00:00 24.9 3 Sudoeste 4 Sudoeste 0 945.7 0.7 47
2019-08-19 01:00:00 25.2 0 Calma 7 Oeste 0 945.8 1.6 45
2019-08-19 00:00:00 26.9 0 Calma 10 Noroeste 0 945.5 2.1 42
2019-08-18 23:00:00 28 2 Norte 14 Norte 0 945 2 38
2019-08-18 22:00:00 29.6 3 Norte 20 Nordeste 0 944.2 1.2 32
2019-08-18 21:00:00 31.7 9 Norte 30 Nordeste 0 943.4 0.4 30
2019-08-18 20:00:00 33.6 14 Nordeste 28 Norte 0 943 -0.2 30
2019-08-18 19:00:00 34.5 14 Nordeste 30 Norte 0 943 -0.7 31
2019-08-18 18:00:00 35.7 13 Nordeste 30 Nordeste 0 943 -0.7 28
2019-08-18 17:00:00 35.8 18 Norte 31 Norte 0 943.2 -1.3 25
2019-08-18 16:00:00 36.9 11 Norte 30 Nordeste 0 943.7 -1.4 24
2019-08-18 15:00:00 36.8 8 Norte 22 Norte 0 943.7 -1.8 24
2019-08-18 14:00:00 35.8 4 Norte 15 Norte 0 944.5 -1.2 26
2019-08-18 13:00:00 34.3 7 Nordeste 15 Nordeste 0 945.1 -0.4 30
2019-08-18 12:00:00 32 5 Norte 12 Nordeste 0 945.5 0.1 34
2019-08-18 11:00:00 29.6 2 Norte 7 Norte 0 945.7 0.7 40
2019-08-18 10:00:00 27.1 3 Nordeste 5 Nordeste 0 945.5 0.7 44
2019-08-18 09:00:00 24.4 3 Norte 5 Sudoeste 0 945.4 0.6 52
2019-08-18 08:00:00 21.5 0 Calma 6 Sudoeste 0 945 -0.1 55
2019-08-18 07:00:00 21.8 4 Sudoeste 6 Sudoeste 0 944.8 -0.6 55
2019-08-18 06:00:00 21.8 3 Sudoeste 5 Sudoeste 0 944.8 -0.9 55
2019-08-18 05:00:00 22.3 0 Calma 9 Sudoeste 0 945.1 -0.9 54
2019-08-18 04:00:00 22.1 0 Calma 6 Este 0 945.4 -0.8 53
2019-08-18 03:00:00 22.3 3 Sudeste 5 Sudeste 0 945.7 -0.3 52
2019-08-18 02:00:00 23.3 0 Calma 6 Sur 0 946 0.2 50
2019-08-18 01:00:00 24.8 0 Calma 6 Norte 0 946.2 0.9 48
2019-08-18 00:00:00 26.1 0 Calma 11 Nordeste 0 946 1.2 46
2019-08-17 23:00:00 27.4 5 Norte 15 Nordeste 0 945.8 1.2 44
2019-08-17 22:00:00 28.5 5 Norte 16 Nordeste 0 945.3 0.5 43
2019-08-17 21:00:00 30 9 Nordeste 21 Norte 0 944.8 -0.3 40
2019-08-17 20:00:00 32.3 13 Norte 27 Nordeste 0 944.6 -0.8 35
2019-08-17 19:00:00 34.4 12 Norte 27 Norte 0 944.8 -1 30
2019-08-17 18:00:00 35.7 12 Norte 30 Nordeste 0 945.1 -1.4 27
2019-08-17 17:00:00 36.1 12 Nordeste 27 Norte 0 945.4 -1.6 25
2019-08-17 16:00:00 36.3 14 Nordeste 26 Nordeste 0 945.8 -2.1 24
2019-08-17 15:00:00 35.7 13 Nordeste 23 Nordeste 0 946.5 -1.9 27
2019-08-17 14:00:00 34.6 10 Nordeste 21 Nordeste 0 947 -1.6 31
2019-08-17 13:00:00 31.6 4 Norte 14 Nordeste 0 947.9 -0.7 40
2019-08-17 12:00:00 29.3 8 Nordeste 13 Norte 0 948.4 -0.1 49
2019-08-17 11:00:00 26.8 2 Norte 11 Nordeste 0 948.6 0.4 60
2019-08-17 10:00:00 24.6 3 Norte 7 Norte 0 948.6 0.5 71
2019-08-17 09:00:00 22.3 0 Calma 8 Sudoeste 0 948.5 0.7 84
2019-08-17 08:00:00 19.8 4 Sudoeste 8 Oeste 0 948.2 0.4 94
2019-08-17 07:00:00 19.3 0 Calma 8 Oeste 0 948.1 0.2 92
2019-08-17 06:00:00 19.9 4 Oeste 5 Oeste 0 947.8 -0.4 90
2019-08-17 05:00:00 20.4 0 Calma 3 Oeste 0 947.8 -0.8 87
2019-08-17 04:00:00 21 0 Calma 3 Oeste 0 947.9 -1 85
2019-08-17 03:00:00 21.1 0 Calma 8 Sur 0 948.2 -0.6 85
2019-08-17 02:00:00 20.9 6 Sudeste 9 Sudeste 0 948.6 -0.3 81
2019-08-17 01:00:00 22.1 2 Sudeste 4 Sudeste 0 948.9 0.7 74
2019-08-17 00:00:00 23.8 0 Calma 10 Noroeste 0 948.8 1.3 69
2019-08-16 23:00:00 24.6 3 Norte 14 Nordeste 0 948.9 1.9 66
2019-08-16 22:00:00 25.6 6 Norte 21 Nordeste 0 948.2 1.4 60
2019-08-16 21:00:00 27.5 8 Nordeste 23 Norte 0 947.5 0.6 49
2019-08-16 20:00:00 30.1 9 Nordeste 23 Nordeste 0 947 -0.3 39
2019-08-16 19:00:00 31.7 10 Norte 28 Nordeste 0 946.8 -1.2 35
2019-08-16 18:00:00 33.3 10 Norte 26 Norte 0 946.9 -1.7 33
2019-08-16 17:00:00 33.7 14 Nordeste 28 Nordeste 0 947.3 -1.8 31
2019-08-16 16:00:00 33.4 11 Nordeste 29 Nordeste 0 948 -1.8 31
2019-08-16 15:00:00 32.1 12 Nordeste 24 Nordeste 0 948.6 -1.7 33
2019-08-16 14:00:00 30.7 9 Nordeste 21 Nordeste 0 949.1 -1.4 35
2019-08-16 13:00:00 29 9 Nordeste 23 Nordeste 0 949.8 -0.8 37
2019-08-16 12:00:00 27.1 8 Norte 21 Este 0 950.3 -0.1 40
2019-08-16 11:00:00 24.9 8 Nordeste 16 Nordeste 0 950.5 0.3 48
2019-08-16 10:00:00 23.2 7 Nordeste 13 Nordeste 0 950.6 1 57
2019-08-16 09:00:00 21.4 0 Calma 7 Noroeste 0 950.4 1.2 76
2019-08-16 08:00:00 18.7 3 Oeste 7 Oeste 0 950.2 0.9 84
2019-08-16 07:00:00 18.6 0 Calma 5 Oeste 0 949.6 0.3 79
2019-08-16 06:00:00 19.3 0 Calma 4 Oeste 0 949.2 -0.2 82
2019-08-16 05:00:00 19.5 0 Calma 5 Sudeste 0 949.3 -0.3 84
2019-08-16 04:00:00 19.8 3 Sudeste 4 Sur 0 949.3 -0.4 81
2019-08-16 03:00:00 20.6 0 Calma 3 Sudeste 0 949.4 -0.3 75
2019-08-16 02:00:00 21.6 0 Calma 4 Este 0 949.6 -0.2 70
2019-08-16 01:00:00 22.8 0 Calma 13 Norte 0 949.7 0.4 64
2019-08-16 00:00:00 23.8 7 Nordeste 17 Nordeste 0 949.7 1 60
2019-08-15 23:00:00 24.7 5 Norte 15 Nordeste 0 949.8 1.8 56
2019-08-15 22:00:00 25.5 5 Norte 21 Norte 0 949.3 1.8 52
2019-08-15 21:00:00 27.1 8 Norte 25 Nordeste 0 948.7 1.1 45
2019-08-15 20:00:00 29.4 12 Nordeste 27 Nordeste 0 948 0.2 38
2019-08-15 19:00:00 31.8 14 Nordeste 30 Nordeste 0 947.5 -0.7 34
2019-08-15 18:00:00 33.3 14 Nordeste 27 Nordeste 0 947.6 -1.1 31
2019-08-15 17:00:00 33.9 13 Nordeste 27 Nordeste 0 947.8 -1.4 30
2019-08-15 16:00:00 33.7 13 Este 26 Este 0 948.2 -1.6 32
2019-08-15 15:00:00 32.3 9 Nordeste 25 Nordeste 0 948.7 -1.8 35
2019-08-15 14:00:00 31 10 Nordeste 21 Este 0 949.2 -1.3 40
2019-08-15 13:00:00 28.6 6 Norte 16 Norte 0 949.8 -0.8 50
2019-08-15 12:00:00 26.7 6 Nordeste 15 Nordeste 0 950.5 0.2 60
2019-08-15 11:00:00 24.2 4 Nordeste 12 Este 0 950.5 0.5 73
2019-08-15 10:00:00 22.7 5 Este 9 Este 0 950.6 1 85
2019-08-15 09:00:00 21 3 Nordeste 7 Nordeste 0 950.3 1.1 96
2019-08-15 08:00:00 19.4 0 Calma 2 Noroeste 0 950 0.8 97
2019-08-15 07:00:00 19.3 0 Calma 3 Norte 0 949.6 0.3 97
2019-08-15 06:00:00 19.6 0 Calma 3 Sur 0 949.2 -0.4 95
2019-08-15 05:00:00 20 0 Calma 2 Nordeste 0 949.2 -0.7 92
2019-08-15 04:00:00 20.4 0 Calma 3 Este 0 949.3 -0.7 89
2019-08-15 03:00:00 20.7 0 Calma 3 Sudeste 0 949.6 -0.4 85
2019-08-15 02:00:00 21.2 3 Sur 8 Sudeste 0 949.9 -0.1 80
2019-08-15 01:00:00 22.4 2 Este 4 Sudeste 0 950 0.7 70
2019-08-15 00:00:00 24 0 Calma 12 Norte 0 950 1.5 65
2019-08-14 23:00:00 24.9 3 Norte 13 Nordeste 0 950 2 60
2019-08-14 22:00:00 26.4 6 Nordeste 16 Nordeste 0 949.3 1.8 53
2019-08-14 21:00:00 27.9 8 Nordeste 27 Nordeste 0 948.5 0.7 46
2019-08-14 20:00:00 29.8 14 Nordeste 35 Nordeste 0 948 -0.3 41
2019-08-14 19:00:00 33.1 9 Este 22 Nordeste 0 947.5 -1.3 28
2019-08-14 18:00:00 33.5 4 Nordeste 19 Oeste 0 947.8 -1.7 28
2019-08-14 17:00:00 32.4 7 Noroeste 19 Nordeste 0 948.3 -1.9 29
2019-08-14 16:00:00 32.3 6 Este 18 Este 0 948.8 -2 32
2019-08-14 15:00:00 31 7 Nordeste 15 Nordeste 0 949.5 -1.9 39
2019-08-14 14:00:00 27.9 3 Norte 14 Nordeste 0 950.2 -1.4 51
2019-08-14 13:00:00 25.4 4 Norte 14 Nordeste 0 950.8 -0.7 65
2019-08-14 12:00:00 22.4 3 Norte 12 Norte 0 951.4 0 83
2019-08-14 11:00:00 20.9 4 Norte 12 Este 0 951.6 0.7 93
2019-08-14 10:00:00 19.8 0 Calma 10 Este 0 951.5 0.6 98
2019-08-14 09:00:00 19.4 6 Este 13 Nordeste 0 951.4 0.8 98
2019-08-14 08:00:00 19.4 6 Este 10 Este 0 950.9 0.5 98
2019-08-14 07:00:00 19.2 4 Este 8 Este 0 950.9 0.2 98
2019-08-14 06:00:00 19.1 3 Este 6 Nordeste 0 950.6 -0.2 98
2019-08-14 05:00:00 18.7 2 Este 7 Nordeste 0 950.4 -0.6 97
2019-08-14 04:00:00 19.3 4 Nordeste 8 Nordeste 0 950.7 -0.1 96
2019-08-14 03:00:00 19.4 2 Nordeste 9 Nordeste 0 950.8 0 95
2019-08-14 02:00:00 19.8 0 Calma 13 Nordeste 0 951 0.5 93
2019-08-14 01:00:00 20.2 8 Nordeste 15 Nordeste 0 950.8 0.7 91
2019-08-14 00:00:00 20.9 8 Nordeste 17 Este 0 950.8 1.7 82
2019-08-13 23:00:00 21.6 8 Nordeste 19 Nordeste 0 950.5 2.2 77
2019-08-13 22:00:00 22.4 10 Nordeste 21 Nordeste 0 950.1 2.3 73
2019-08-13 21:00:00 23.7 9 Nordeste 27 Nordeste 0 949.1 1.7 67
2019-08-13 20:00:00 25.5 15 Nordeste 29 Nordeste 0 948.3 0.5 55
2019-08-13 19:00:00 27.1 15 Nordeste 31 Este 0 947.8 -0.4 49
2019-08-13 18:00:00 29.1 16 Este 28 Este 0 947.4 -1.2 46
2019-08-13 17:00:00 29.2 9 Este 29 Nordeste 0 947.8 -1.4 45
2019-08-13 16:00:00 29.7 11 Este 27 Este 0 948.2 -1.6 45
2019-08-13 15:00:00 28.5 13 Nordeste 25 Este 0 948.6 -1.5 47
2019-08-13 14:00:00 28 13 Nordeste 32 Este 0 949.2 -0.9 50
2019-08-13 13:00:00 27 9 Nordeste 22 Este 0 949.8 -0.1 54
2019-08-13 12:00:00 25.1 9 Nordeste 18 Nordeste 0 950.1 0.2 62
2019-08-13 11:00:00 23.9 5 Nordeste 17 Nordeste 0 950.1 0.6 66
2019-08-13 10:00:00 22.9 6 Norte 18 Norte 0 949.9 1.2 74
2019-08-13 09:00:00 21.2 10 Noroeste 21 Norte 0 949.9 1.1 83
2019-08-13 08:00:00 20.2 12 Norte 22 Noroeste 0 949.5 0.7 86
2019-08-13 07:00:00 20 8 Noroeste 27 Noroeste 0 948.7 -0.4 86
2019-08-13 06:00:00 20.1 13 Noroeste 27 Noroeste 0 948.8 -0.5 86
2019-08-13 05:00:00 20.5 14 Noroeste 22 Noroeste 0 948.8 -0.9 87
2019-08-13 04:00:00 20.9 6 Noroeste 18 Norte 0 949.1 -0.5 89
2019-08-13 03:00:00 21.1 12 Noroeste 18 Norte 0 949.3 0.2 89
2019-08-13 02:00:00 21.4 10 Norte 17 Norte 0 949.7 1.1 86
2019-08-13 01:00:00 21.6 11 Norte 22 Noroeste 0 949.6 2 85
2019-08-13 00:00:00 22.1 13 Noroeste 21 Norte 0 949.1 2.7 80
2019-08-12 23:00:00 22.9 13 Noroeste 26 Noroeste 0 948.6 3.6 73
2019-08-12 22:00:00 24.5 8 Nordeste 21 Norte 0 947.6 3 64
2019-08-12 21:00:00 25.9 7 Nordeste 24 Nordeste 0 946.4 1.6 58
2019-08-12 20:00:00 28.8 15 Nordeste 27 Nordeste 0 945 -0.3 37
2019-08-12 19:00:00 31.9 6 Nordeste 15 Este 0 944.6 -1.5 23
2019-08-12 18:00:00 31.2 6 Noroeste 19 Oeste 0 944.8 -1.7 23
2019-08-12 17:00:00 30.8 6 Noroeste 24 Sudoeste 0 945.3 -1.6 23
2019-08-12 16:00:00 31.1 4 Norte 17 Sur 0 946.1 -1.5 24
2019-08-12 15:00:00 30.2 8 Oeste 21 Sudoeste 0 946.5 -1.1 25
2019-08-12 14:00:00 29.1 13 Sur 24 Sur 0 946.9 -0.4 27
2019-08-12 13:00:00 27 12 Sudoeste 26 Sudoeste 0 947.6 0.7 30
2019-08-12 12:00:00 26 13 Sudoeste 26 Sudoeste 0 947.6 0.7 31
2019-08-12 11:00:00 25.7 12 Sudoeste 26 Sudoeste 0 947.3 0.9 34
2019-08-12 10:00:00 23.8 13 Sudoeste 23 Oeste 0 946.9 1.2 34
2019-08-12 09:00:00 21.9 10 Sudoeste 20 Sudoeste 0 946.9 1.3 35
2019-08-12 08:00:00 20.2 0 Calma 24 Sudoeste 0 946.4 1 36
2019-08-12 07:00:00 19.7 13 Sudoeste 28 Oeste 0 945.7 0.1 36
2019-08-12 06:00:00 20.8 18 Sudoeste 31 Sudoeste 0 945.6 -0.3 33
2019-08-12 05:00:00 21.4 13 Sudoeste 39 Sudoeste 0 945.4 -0.8 31
2019-08-12 04:00:00 22.5 21 Sudoeste 36 Sudoeste 0 945.6 -0.8 29
2019-08-12 03:00:00 23.4 18 Sudoeste 32 Sudoeste 0 945.9 -0.5 28
2019-08-12 02:00:00 24.5 15 Sudoeste 38 Sur 0 946.2 0 26
2019-08-12 01:00:00 25.7 18 Sur 39 Sudeste 0 946.4 0.7 26
2019-08-12 00:00:00 26.2 14 Sur 22 Sur 0 946.4 1.6 27
2019-08-11 23:00:00 27.6 11 Sur 21 Sur 0 946.2 2.4 26
2019-08-11 22:00:00 28.6 9 Sudoeste 22 Sudoeste 0 945.7 2.3 25
2019-08-11 21:00:00 31 5 Sudoeste 21 Este 0 944.8 1.1 25
2019-08-11 20:00:00 33.9 12 Este 27 Sudeste 0 943.8 -0.2 24
2019-08-11 19:00:00 35.4 8 Este 24 Sudoeste 0 943.4 -1 24
2019-08-11 18:00:00 34.7 18 Sudoeste 33 Sur 0 943.7 -1.3 24
2019-08-11 17:00:00 34.9 13 Sudoeste 28 Sudoeste 0 944 -1.5 25
2019-08-11 16:00:00 34.9 6 Sur 23 Sur 0 944.4 -1.6 29
2019-08-11 15:00:00 34.1 6 Oeste 20 Oeste 0 945 -1.4 31
2019-08-11 14:00:00 33.1 6 Sudeste 20 Sur 0 945.5 -0.9 35
2019-08-11 13:00:00 32.2 6 Noroeste 18 Sudeste 0 946 -0.7 38
2019-08-11 12:00:00 30.1 9 Sudeste 22 Sudeste 0 946.4 -0.5 42
2019-08-11 11:00:00 28.5 5 Sudeste 26 Sur 0 946.4 -0.1 48
2019-08-11 10:00:00 26.7 6 Sur 19 Sur 0 946.7 0.7 56
2019-08-11 09:00:00 24.3 11 Sudeste 21 Sudeste 0 946.9 1.2 66
2019-08-11 08:00:00 22.3 11 Sudeste 17 Sudeste 0 946.5 0.8 71
2019-08-11 07:00:00 21.8 0 Calma 11 Sudeste 0 946 -0.1 70
2019-08-11 06:00:00 22.7 8 Sudeste 14 Sudeste 0 945.7 -1 68
2019-08-11 05:00:00 23 5 Sudeste 7 Sudeste 0 945.7 -1.6 67
2019-08-11 04:00:00 23.7 0 Calma 2 Noroeste 0 946.1 -1.3 65
2019-08-11 03:00:00 24.5 0 Calma 8 Noroeste 0 946.7 -0.6 63
2019-08-11 02:00:00 23.9 2 Noroeste 6 Noroeste 0 947.3 -0.1 61
2019-08-11 01:00:00 24.5 3 Nordeste 6 Norte 0 947.4 0.3 57
2019-08-11 00:00:00 26.2 5 Norte 10 Noroeste 0 947.3 0.8 52
2019-08-10 23:00:00 27.2 3 Noroeste 14 Noroeste 0 947.4 1.3 48
2019-08-10 22:00:00 28 10 Noroeste 21 Noroeste 0 947.1 1.2 46
2019-08-10 21:00:00 29.7 8 Noroeste 20 Noroeste 0 946.5 0.6 43
2019-08-10 20:00:00 32.4 7 Noroeste 29 Noroeste 0 946.1 -0.1 38
2019-08-10 19:00:00 33.7 14 Noroeste 33 Norte 0 945.9 -1 36
2019-08-10 18:00:00 35.6 13 Norte 39 Norte 0 945.9 -1.9 32
2019-08-10 17:00:00 37 12 Norte 25 Norte 0 946.2 -2.5 27
2019-08-10 16:00:00 36.5 9 Norte 23 Noroeste 0 946.9 -2.2 29
2019-08-10 15:00:00 34.3 5 Sur 18 Sur 0 947.8 -1.9 33
2019-08-10 14:00:00 33 5 Sudeste 18 Sudeste 0 948.7 -1.1 38
2019-08-10 13:00:00 31.4 3 Sudeste 18 Sudeste 0 949.1 -0.6 43
2019-08-10 12:00:00 29.6 9 Este 21 Sudeste 0 949.7 0.2 51
2019-08-10 11:00:00 27.5 12 Este 27 Sudeste 0 949.8 0.7 59
2019-08-10 10:00:00 26 12 Este 27 Este 0 949.7 1.3 63
2019-08-10 09:00:00 24.9 13 Sudeste 23 Sudeste 0 949.5 1.4 66
2019-08-10 08:00:00 22.8 8 Este 15 Sudeste 0 949.1 1.3 73
2019-08-10 07:00:00 22.9 6 Sudeste 18 Este 0 948.4 0.5 71
2019-08-10 06:00:00 23.5 9 Este 18 Este 0 948.1 0.4 66
2019-08-10 05:00:00 24.6 11 Este 18 Este 0 947.8 0 56
2019-08-10 04:00:00 25.5 8 Este 14 Este 0 947.9 0.2 45
2019-08-10 03:00:00 26.6 6 Sur 19 Este 0 947.7 0.2 38
2019-08-10 02:00:00 27.2 10 Sudeste 26 Este 0 947.8 0.9 31
2019-08-10 01:00:00 28 11 Este 18 Este 0 947.7 1.5 27
2019-08-10 00:00:00 30.3 7 Este 18 Este 0 947.5 2.1 25
2019-08-09 23:00:00 30.1 10 Nordeste 22 Nordeste 0 946.9 2.1 25
2019-08-09 22:00:00 32.3 17 Nordeste 30 Nordeste 0 946.2 1.6 22
2019-08-09 21:00:00 34 15 Nordeste 33 Nordeste 0 945.4 0.6 19
2019-08-09 20:00:00 36.3 24 Nordeste 43 Nordeste 0 944.8 -0.4 17
2019-08-09 19:00:00 38.2 24 Norte 45 Norte 0 944.6 -1 14
2019-08-09 18:00:00 39.3 14 Norte 33 Norte 0 944.8 -1.5 13
2019-08-09 17:00:00 39.3 16 Norte 42 Noroeste 0 945.2 -1.3 13
2019-08-09 16:00:00 38.7 13 Oeste 28 Oeste 0 945.6 -1.1 16
2019-08-09 15:00:00 36.3 6 Nordeste 23 Norte 0 946.3 -0.6 20
2019-08-09 14:00:00 37.3 11 Noroeste 31 Noroeste 0 946.5 -0.5 17
2019-08-09 13:00:00 33.9 6 Este 18 Nordeste 0 946.7 -0.5 30
2019-08-09 12:00:00 33 10 Norte 21 Norte 0 946.9 0.2 31
2019-08-09 11:00:00 31.2 10 Norte 23 Norte 0 947 0.4 35
2019-08-09 10:00:00 29.6 11 Noroeste 23 Noroeste 0 947.2 0.9 37
2019-08-09 09:00:00 27.5 11 Norte 21 Norte 0 946.7 0.4 39
2019-08-09 08:00:00 23.2 4 Sudoeste 9 Este 0 946.6 0.4 45
2019-08-09 07:00:00 21.7 2 Sudeste 6 Este 0 946.3 0.3 47
2019-08-09 06:00:00 20.7 0 Calma 3 Nordeste 0 946.3 0 51
2019-08-09 05:00:00 20.8 0 Calma 3 Sudeste 0 946.2 0.1 49
2019-08-09 04:00:00 23.1 2 Nordeste 4 Nordeste 0 946 -0.1 46
2019-08-09 03:00:00 23.5 0 Calma 5 Noroeste 0 946.3 0.4 46
2019-08-09 02:00:00 22.9 4 Noroeste 8 Norte 0 946.1 0.2 44
2019-08-09 01:00:00 24.1 3 Norte 6 Noroeste 0 946.1 0.9 40
2019-08-09 00:00:00 25.7 0 Calma 5 Sudoeste 0 945.9 1.5 37
2019-08-08 23:00:00 27.6 3 Sudoeste 16 Oeste 0 945.9 2 34
2019-08-08 22:00:00 29.6 7 Sudoeste 19 Sudoeste 0 945.2 1.4 31
2019-08-08 21:00:00 31.6 9 Sudoeste 21 Sudoeste 0 944.4 0.7 29
2019-08-08 20:00:00 34 12 Sudoeste 23 Sudoeste 0 943.9 -0.1 27
2019-08-08 19:00:00 35.9 3 Norte 25 Norte 0 943.8 -0.9 24
2019-08-08 18:00:00 36.7 10 Norte 26 Norte 0 943.7 -1.7 23
2019-08-08 17:00:00 36.5 4 Sur 20 Sudoeste 0 944 -1.9 24
2019-08-08 16:00:00 36.1 7 Sudoeste 21 Sudoeste 0 944.7 -1.7 25
2019-08-08 15:00:00 33.9 7 Sudeste 18 Sudoeste 0 945.4 -1.3 27
2019-08-08 14:00:00 34 9 Sudoeste 16 Sudoeste 0 945.9 -0.6 29
2019-08-08 13:00:00 32.1 7 Este 20 Nordeste 0 946.4 -0.1 32
2019-08-08 12:00:00 30.4 6 Nordeste 17 Nordeste 0 946.7 0.2 35
2019-08-08 11:00:00 28.3 6 Nordeste 15 Nordeste 0 946.5 0.3 40
2019-08-08 10:00:00 26.2 3 Sudeste 10 Norte 0 946.5 0.7 44
2019-08-08 09:00:00 24.6 5 Nordeste 14 Nordeste 0 946.5 1.1 47
2019-08-08 08:00:00 22.8 2 Sudeste 16 Norte 0 946.2 0.9 48
2019-08-08 07:00:00 22.5 8 Nordeste 24 Norte 0 945.8 0.4 47
2019-08-08 06:00:00 23.4 18 Nordeste 30 Nordeste 0 945.4 0 44
2019-08-08 05:00:00 24.2 15 Nordeste 28 Nordeste 0 945.3 -0.3 42
2019-08-08 04:00:00 24.8 14 Nordeste 29 Nordeste 0 945.4 -0.4 39
2019-08-08 03:00:00 25.6 19 Nordeste 29 Nordeste 0 945.4 0.2 36
2019-08-08 02:00:00 26.5 18 Nordeste 31 Nordeste 0 945.6 0.1 34
2019-08-08 01:00:00 27.3 13 Nordeste 25 Norte 0 945.8 0.9 32
2019-08-08 00:00:00 27.9 9 Nordeste 17 Nordeste 0 945.2 1.5 29
2019-08-07 23:00:00 29.1 0 Calma 10 Este 0 945.5 2 25
2019-08-07 22:00:00 29.4 6 Nordeste 12 Nordeste 0 944.9 1.8 25
2019-08-07 21:00:00 31.1 5 Este 18 Nordeste 0 943.7 0.5 23
2019-08-07 20:00:00 31.8 12 Este 27 Nordeste 0 943.5 0.3 22
2019-08-07 19:00:00 33.6 9 Nordeste 26 Nordeste 0 943.1 -0.7 20
2019-08-07 18:00:00 35.3 14 Norte 30 Noroeste 0 943.2 -0.9 16
2019-08-07 17:00:00 35.5 12 Nordeste 27 Norte 0 943.2 -1.1 18
2019-08-07 16:00:00 36.8 15 Norte 31 Norte 0 943.8 -1.1 15
2019-08-07 15:00:00 35.7 11 Norte 29 Noroeste 0 944.1 -0.8 17
2019-08-07 14:00:00 33.3 0 Calma 15 Nordeste 0 944.3 -0.4 26
2019-08-07 13:00:00 32.3 7 Sudeste 18 Este 0 944.9 0.6 27
2019-08-07 12:00:00 31.8 0 Calma 18 Nordeste 0 944.9 0.8 29
2019-08-07 11:00:00 30.2 10 Nordeste 20 Norte 0 944.7 1.1 31
2019-08-07 10:00:00 30 11 Noroeste 20 Noroeste 0 944.3 1.1 31
2019-08-07 09:00:00 27.4 7 Norte 14 Norte 0 944.1 1.4 31
2019-08-07 08:00:00 23.7 4 Noroeste 13 Noroeste 0 943.6 0.9 34
2019-08-07 07:00:00 23.1 8 Noroeste 17 Norte 0 943.2 0.5 33
2019-08-07 06:00:00 24.4 11 Noroeste 33 Norte 0 942.7 -0.4 30
2019-08-07 05:00:00 25.2 11 Norte 24 Norte 0 942.7 -0.7 31
2019-08-07 04:00:00 24.5 10 Norte 18 Norte 0 942.7 -0.9 43
2019-08-07 03:00:00 23.8 0 Calma 6 Noroeste 0 943.1 -0.6 57
2019-08-07 02:00:00 24.4 5 Norte 8 Norte 0 943.4 0 52
2019-08-07 01:00:00 25.2 3 Noroeste 5 Norte 0 943.6 1 47
2019-08-07 00:00:00 27.3 3 Sudoeste 18 Sudoeste 0 943.7 1.6 43
2019-08-06 23:00:00 28.8 9 Sudoeste 17 Sudoeste 0 943.4 2 39
2019-08-06 22:00:00 30.3 10 Sudoeste 21 Sudoeste 0 942.6 1.1 35
2019-08-06 21:00:00 32.8 6 Sudoeste 18 Sur 0 942.1 0.2 31
2019-08-06 20:00:00 34.9 6 Sur 23 Norte 0 941.4 -0.8 28
2019-08-06 19:00:00 37 9 Norte 23 Norte 0 941.5 -1.4 23
2019-08-06 18:00:00 37.2 10 Norte 30 Norte 0 941.9 -1.9 21
2019-08-06 17:00:00 37.7 12 Norte 31 Norte 0 942.2 -2.5 20
2019-08-06 16:00:00 37.8 0 Calma 25 Sur 0 942.9 -2.3 20
2019-08-06 15:00:00 36.4 4 Sudoeste 21 Sudeste 0 943.8 -1.8 22
2019-08-06 14:00:00 35.2 4 Nordeste 21 Sudoeste 0 944.7 -1 23
2019-08-06 13:00:00 34 0 Calma 13 Sudoeste 0 945.2 -0.5 25
2019-08-06 12:00:00 31.8 5 Sudeste 13 Sur 0 945.6 0 31
2019-08-06 11:00:00 30.2 3 Sudoeste 9 Sudoeste 0 945.7 0.2 38
2019-08-06 10:00:00 26.5 2 Este 7 Nordeste 0 945.7 0.3 59
2019-08-06 09:00:00 22.9 3 Este 14 Nordeste 0 945.6 0.3 88
2019-08-06 08:00:00 20.8 5 Nordeste 10 Nordeste 0 945.5 0.1 97
2019-08-06 07:00:00 20.4 4 Nordeste 8 Nordeste 0 945.4 0.1 97
2019-08-06 06:00:00 21 3 Nordeste 5 Nordeste 0 945.3 -0.1 97
2019-08-06 05:00:00 21.2 2 Sudoeste 9 Oeste 0 945.4 -0.2 95
2019-08-06 04:00:00 21.9 0 Calma 5 Sur 0 945.3 -0.7 93
2019-08-06 03:00:00 21.7 0 Calma 6 Noroeste 0 945.4 -0.6 90
2019-08-06 02:00:00 22.4 3 Noroeste 5 Noroeste 0 945.6 0 85
2019-08-06 01:00:00 23.5 4 Noroeste 9 Sudoeste 0 946 1.2 80
2019-08-06 00:00:00 24.5 5 Sur 22 Sudoeste 0 946 2.1 78
2019-08-05 23:00:00 26 5 Sur 14 Sur 0 945.6 2 69
2019-08-05 22:00:00 27 8 Sur 17 Sudoeste 0 944.8 1.2 65
2019-08-05 21:00:00 28.2 12 Sudoeste 22 Sudoeste 0 943.9 0.6 60
2019-08-05 20:00:00 30.1 13 Sudoeste 30 Sudoeste 0 943.6 -0.1 54
2019-08-05 19:00:00 32.7 19 Sudoeste 32 Sudoeste 0 943.6 -0.4 41
2019-08-05 18:00:00 34.9 9 Sur 30 Norte 0 943.3 -1.5 32
2019-08-05 17:00:00 35.7 5 Sudoeste 29 Nordeste 0 943.7 -2 30
2019-08-05 16:00:00 36.6 2 Sudoeste 22 Sudoeste 0 944 -2.4 28
2019-08-05 15:00:00 35.3 6 Sur 22 Sudoeste 0 944.8 -2.1 29
2019-08-05 14:00:00 34 5 Sur 17 Sudoeste 0 945.7 -1.1 33
2019-08-05 13:00:00 32.1 5 Sudoeste 14 Sudoeste 0 946.4 -0.5 37
2019-08-05 12:00:00 30.2 6 Sudoeste 13 Sudoeste 0 946.9 0 46
2019-08-05 11:00:00 27.8 0 Calma 6 Sudeste 0 946.8 0.3 58
2019-08-05 10:00:00 25.7 3 Sur 9 Sur 0 946.9 1.1 69
2019-08-05 09:00:00 23.3 2 Sudoeste 9 Sudoeste 0 946.9 1 82
2019-08-05 08:00:00 20.6 3 Sudoeste 13 Norte 0 946.5 0.4 87
2019-08-05 07:00:00 20.8 6 Nordeste 14 Nordeste 0 945.8 -0.5 86
2019-08-05 06:00:00 21.7 5 Nordeste 8 Nordeste 0 945.9 -0.7 85
2019-08-05 05:00:00 21.6 0 Calma 6 Norte 0 946.1 -1 83
2019-08-05 04:00:00 22.3 0 Calma 6 Norte 0 946.3 -1 80
2019-08-05 03:00:00 22.9 0 Calma 6 Sudoeste 0 946.6 -0.1 75
2019-08-05 02:00:00 24 0 Calma 7 Norte 0 947.1 0.9 69
2019-08-05 01:00:00 25.1 4 Sudoeste 16 Sudoeste 0 947.3 1.7 65
2019-08-05 00:00:00 25.7 3 Sur 11 Sur 0 946.7 2 61
2019-08-04 23:00:00 26.9 2 Sur 8 Sur 0 946.2 2 54
2019-08-04 22:00:00 28.1 4 Sur 21 Sur 0 945.6 1.7 47
2019-08-04 21:00:00 29.6 14 Sudoeste 24 Sudoeste 0 944.7 0.8 42
2019-08-04 20:00:00 32 13 Sudoeste 26 Sur 0 944.2 -0.1 37
2019-08-04 19:00:00 34.1 13 Sudoeste 26 Sudoeste 0 943.9 -1.1 31
2019-08-04 18:00:00 35.8 2 Norte 22 Sudoeste 0 943.9 -1.6 25
2019-08-04 17:00:00 35.8 9 Sudoeste 21 Sudeste 0 944.3 -1.7 24
2019-08-04 16:00:00 35 7 Sudeste 19 Sur 0 945 -1.3 25
2019-08-04 15:00:00 34.8 10 Sudoeste 23 Sudoeste 0 945.5 -1.3 27
2019-08-04 14:00:00 33.4 4 Sur 16 Sudeste 0 946 -0.7 28
2019-08-04 13:00:00 32 7 Sudoeste 20 Sudoeste 0 946.3 -0.2 32
2019-08-04 12:00:00 30.4 6 Sur 13 Sudeste 0 946.8 0.8 37
2019-08-04 11:00:00 28.1 5 Sudoeste 12 Sur 0 946.7 0.7 47
2019-08-04 10:00:00 25.5 3 Sur 10 Nordeste 0 946.5 0.5 59
2019-08-04 09:00:00 22.6 6 Nordeste 11 Nordeste 0 946 0.1 71
2019-08-04 08:00:00 20.2 6 Este 13 Nordeste 0 946 0.1 83
2019-08-04 07:00:00 19.3 3 Nordeste 9 Nordeste 0 946 -0.2 84
2019-08-04 06:00:00 19.9 2 Este 7 Norte 0 945.9 -0.4 85
2019-08-04 05:00:00 19.7 0 Calma 8 Nordeste 0 945.9 -0.7 81
2019-08-04 04:00:00 20.4 0 Calma 6 Norte 0 946.2 -0.3 79
2019-08-04 03:00:00 21.1 3 Noroeste 12 Sudoeste 0 946.3 -0.3 75
2019-08-04 02:00:00 22.5 6 Sur 12 Sudoeste 0 946.6 0.6 63
2019-08-04 01:00:00 23.3 6 Sur 12 Sur 0 946.5 1.3 58
2019-08-04 00:00:00 24 5 Sur 21 Sudoeste 0 946.6 2.2 57
2019-08-03 23:00:00 24.6 8 Sudoeste 21 Sudoeste 0 946 1.9 58
2019-08-03 22:00:00 25.6 5 Sur 21 Sudoeste 0 945.2 1 57
2019-08-03 21:00:00 27.6 12 Sudoeste 30 Sudoeste 0 944.4 0 46
2019-08-03 20:00:00 30.5 8 Sur 31 Sudoeste 0 944.1 -0.9 37
2019-08-03 19:00:00 32.6 8 Sur 27 Sudoeste 0 944.2 -1.5 34
2019-08-03 18:00:00 33.1 13 Sudoeste 25 Sudoeste 0 944.4 -1.9 33
2019-08-03 17:00:00 33.8 8 Sur 24 Sudoeste 0 945 -1.7 33
2019-08-03 16:00:00 32.5 8 Sur 30 Sudoeste 0 945.7 -1.3 34
2019-08-03 15:00:00 32 10 Sudoeste 25 Oeste 0 946.3 -0.9 37
2019-08-03 14:00:00 30.7 11 Sudoeste 21 Sudoeste 0 946.7 -1 43
2019-08-03 13:00:00 29.3 5 Sur 19 Sudoeste 0 947 -0.6 48
2019-08-03 12:00:00 27.8 6 Sur 18 Sudoeste 0 947.2 -0.4 56
2019-08-03 11:00:00 25.8 10 Sudoeste 18 Sudoeste 0 947.7 0.6 67
2019-08-03 10:00:00 24.1 4 Sudoeste 13 Sudoeste 0 947.6 0.8 82
2019-08-03 09:00:00 22.7 4 Noroeste 8 Noroeste 0 947.6 0.9 93
2019-08-03 08:00:00 21.2 0 Calma 4 Noroeste 0 947.1 0.4 97
2019-08-03 07:00:00 20.9 0 Calma 3 Noroeste 0 946.8 0.1 97
2019-08-03 06:00:00 20.2 0 Calma 3 Nordeste 0 946.7 -0.4 96
2019-08-03 05:00:00 20.5 0 Calma 5 Noroeste 0 946.7 -0.6 92
2019-08-03 04:00:00 21.4 0 Calma 8 Sudoeste 0 946.7 -0.6 89
2019-08-03 03:00:00 22.2 3 Sur 13 Sur 0 947.1 0.1 86
2019-08-03 02:00:00 22.7 6 Sur 17 Sudoeste 0 947.3 0.8 85
2019-08-03 01:00:00 23.6 6 Sur 23 Sudoeste 0 947.3 1.6 74
2019-08-03 00:00:00 25.3 8 Sur 20 Sudoeste 0 947 2 61
2019-08-02 23:00:00 26.4 7 Sur 21 Sur 0 946.5 1.8 55
2019-08-02 22:00:00 27.6 7 Sudoeste 18 Sudoeste 0 945.7 0.7 49
2019-08-02 21:00:00 29.8 6 Sur 20 Sur 0 945 0 40
2019-08-02 20:00:00 31.6 8 Sur 20 Sudoeste 0 944.7 -0.6 37
2019-08-02 19:00:00 32 12 Sur 26 Sur 0 945 -0.6 37
2019-08-02 18:00:00 32.5 13 Sudoeste 25 Sudoeste 0 945 -1 37
2019-08-02 17:00:00 33.1 12 Sudoeste 28 Sudoeste 0 945.3 -0.8 36
2019-08-02 16:00:00 32.9 14 Sudoeste 32 Sudoeste 0 945.6 -1 36
2019-08-02 15:00:00 32.6 16 Sudoeste 32 Sur 0 946 -0.7 35
2019-08-02 14:00:00 33.1 6 Sudoeste 20 Sudoeste 0 946.1 -0.4 30
2019-08-02 13:00:00 31.8 5 Sudeste 16 Sur 0 946.6 0.3 31
2019-08-02 12:00:00 29.5 5 Sur 14 Sudeste 0 946.7 0.7 35
2019-08-02 11:00:00 27.2 6 Este 14 Sudeste 0 946.5 0.7 42
2019-08-02 10:00:00 26.1 3 Sudeste 11 Sudeste 0 946.3 0.7 48
2019-08-02 09:00:00 22.9 6 Nordeste 14 Norte 0 946 0.5 71
2019-08-02 08:00:00 19.9 6 Nordeste 17 Nordeste 0 945.8 0.3 98
2019-08-02 07:00:00 19.7 6 Nordeste 10 Nordeste 0 945.6 0.2 98
2019-08-02 06:00:00 20.2 2 Este 6 Este 0 945.5 0 99
2019-08-02 05:00:00 20 0 Calma 6 Norte 0 945.5 -0.3 98
2019-08-02 04:00:00 20.1 2 Noroeste 4 Noroeste 0 945.4 -0.5 97
2019-08-02 03:00:00 21 0 Calma 5 Oeste 0 945.5 -0.4 95
2019-08-02 02:00:00 21.4 5 Oeste 7 Oeste 0 945.8 0.5 93
2019-08-02 01:00:00 22.4 4 Oeste 9 Sudoeste 0 945.9 1.7 87
2019-08-02 00:00:00 23.4 4 Oeste 15 Sudoeste 0 945.9 2.7 81
2019-08-01 23:00:00 24.8 5 Sur 21 Sudoeste 0 945.3 3 73
2019-08-01 22:00:00 26.2 13 Sudoeste 23 Sudoeste 0 944.2 2.2 63
2019-08-01 21:00:00 29.6 13 Sudoeste 29 Sudoeste 0 943.2 0.9 38
2019-08-01 20:00:00 33.8 9 Sudoeste 16 Oeste 0 942.3 -0.5 29
2019-08-01 19:00:00 34.7 3 Noroeste 19 Sur 0 942 -1.4 29
2019-08-01 18:00:00 35.1 6 Sudoeste 20 Sudoeste 0 942.3 -1.9 29
2019-08-01 17:00:00 34.6 12 Sudoeste 19 Oeste 0 942.8 -2.1 30
2019-08-01 16:00:00 33.2 3 Sudeste 15 Sudoeste 0 943.4 -1.9 32
2019-08-01 15:00:00 31.9 5 Sur 25 Sudoeste 0 944.2 -1.1 34
2019-08-01 14:00:00 30.7 7 Sudoeste 17 Sudoeste 0 944.9 -0.3 37
2019-08-01 13:00:00 28.1 5 Sur 19 Sudoeste 0 945.3 -0.2 42
2019-08-01 12:00:00 27 6 Sudoeste 17 Oeste 0 945.3 -0.6 50
2019-08-01 11:00:00 24.3 4 Sur 12 Nordeste 0 945.2 -0.6 62
2019-08-01 10:00:00 22.3 6 Nordeste 13 Nordeste 0 945.5 -0.4 72
2019-08-01 09:00:00 20.5 3 Este 6 Este 0 945.9 0.3 84
2019-08-01 08:00:00 18.5 0 Calma 9 Norte 0 945.8 0.1 95
2019-08-01 07:00:00 17.8 2 Nordeste 10 Sudeste 0 945.9 0 93
2019-08-01 06:00:00 18.3 5 Este 10 Este 0 945.6 -0.4 92
2019-08-01 05:00:00 18.6 4 Nordeste 13 Este 0 945.7 -0.4 90
2019-08-01 04:00:00 19 4 Este 15 Este 0 945.9 -0.6 87
2019-08-01 03:00:00 19.6 4 Este 11 Nordeste 0 946 -0.6 87
2019-08-01 02:00:00 20 6 Este 9 Nordeste 0 946.1 -0.9 84
2019-08-01 01:00:00 20.9 7 Sudeste 19 Este 0 946.5 0.2 77
2019-08-01 00:00:00 21.7 11 Este 18 Este 0 946.6 1.1 70
2019-07-31 23:00:00 22.7 9 Sudeste 23 Sudeste 0 947 2.2 66
2019-07-31 22:00:00 23.7 14 Sudeste 25 Sudeste 0 946.3 1.7 62
2019-07-31 21:00:00 25.9 9 Sur 22 Sudoeste 0 945.5 0.5 46
2019-07-31 20:00:00 27.9 10 Sudoeste 21 Sudoeste 0 944.8 -1.3 44
2019-07-31 19:00:00 28.9 11 Sudoeste 23 Sudoeste 0 944.6 -2 44
2019-07-31 18:00:00 28.4 8 Sudeste 23 Sur 0 945 -2.3 46
2019-07-31 17:00:00 28.5 9 Sur 23 Sudoeste 0 946.1 -0.9 46
2019-07-31 16:00:00 27.9 9 Sur 25 Sudoeste 0 946.6 -1.1 47
2019-07-31 15:00:00 26 13 Sudoeste 28 Sudoeste 0 947.3 -0.7 54
2019-07-31 14:00:00 26.6 15 Sudoeste 28 Sudoeste 0 947 -1.3 51
2019-07-31 13:00:00 26.7 14 Sudoeste 33 Sur 0 947.7 -0.1 48
2019-07-31 12:00:00 26.2 8 Sur 25 Sudoeste 0 948 0.2 49
2019-07-31 11:00:00 25.2 10 Sudoeste 22 Oeste 0 948.3 1 56
2019-07-31 10:00:00 22.5 13 Sudeste 22 Este 0 947.8 1.7 73
2019-07-31 09:00:00 21.4 10 Sudeste 18 Sudeste 0 947.8 0.7 82
2019-07-31 08:00:00 20.3 4 Sur 15 Este 0 947.3 -0.6 90
2019-07-31 07:00:00 20.3 9 Este 23 Sudeste 0 946.1 -1.6 93
2019-07-31 06:00:00 20.7 5 Sudeste 12 Sudoeste 0 947.1 -0.5 97
2019-07-31 05:00:00 21.2 8 Sudoeste 15 Sudoeste 0 947.9 1.1 97
2019-07-31 04:00:00 21.5 9 Sudoeste 19 Sudoeste 0 947.7 0.9 97
2019-07-31 03:00:00 21.8 13 Sudoeste 35 Sudoeste 0 947.6 0.9 97
2019-07-31 02:00:00 22.4 6 Sudoeste 17 Sudoeste 0 946.8 0.5 95
2019-07-31 01:00:00 22.5 7 Sudoeste 13 Sudoeste 0 946.8 1.1 95
2019-07-31 00:00:00 22.5 7 Sudoeste 15 Sudoeste 0 946.7 1.7 94
2019-07-30 23:00:00 23.1 6 Sudoeste 19 Sudoeste 0 946.3 1.7 89
2019-07-30 22:00:00 23.8 10 Sudoeste 25 Sudoeste 0 945.7 1.8 82
2019-07-30 21:00:00 25.4 14 Sudoeste 27 Sudoeste 0 945 1.3 70
2019-07-30 20:00:00 28 12 Sudoeste 35 Sudoeste 0 944.6 0.9 54
2019-07-30 19:00:00 29.8 17 Sudoeste 36 Sudoeste 0 943.9 0 42
2019-07-30 18:00:00 32.1 13 Sur 32 Sur 0 943.7 -0.5 37
2019-07-30 17:00:00 33.6 15 Sur 34 Sur 0 943.7 -1.2 32
2019-07-30 16:00:00 35 12 Sur 39 Sudoeste 0 943.9 -1.4 28
2019-07-30 15:00:00 34.3 5 Este 17 Sur 0 944.2 -1.6 29
2019-07-30 14:00:00 33.5 9 Sur 20 Sudeste 0 944.9 -0.8 29
2019-07-30 13:00:00 32.1 2 Sudeste 17 Este 0 945.3 -0.5 31
2019-07-30 12:00:00 30.3 6 Este 16 Este 0 945.8 0.2 33
2019-07-30 11:00:00 28.9 4 Nordeste 14 Sudeste 0 945.7 0.6 36
2019-07-30 10:00:00 26.9 3 Nordeste 19 Norte 0 945.8 1.2 39
2019-07-30 09:00:00 24.6 6 Norte 16 Nordeste 0 945.6 1.3 44
2019-07-30 08:00:00 22.2 6 Norte 15 Noroeste 0 945.1 0.9 48
2019-07-30 07:00:00 20.5 0 Calma 6 Noroeste 0 944.6 0.4 51
2019-07-30 06:00:00 21.5 6 Noroeste 13 Norte 0 944.3 -0.1 51
2019-07-30 05:00:00 21.3 0 Calma 14 Noroeste 0 944.2 -0.1 55
2019-07-30 04:00:00 20.9 2 Noroeste 9 Norte 0 944.2 -0.3 64
2019-07-30 03:00:00 22.2 5 Norte 10 Norte 0 944.4 0.1 66
2019-07-30 02:00:00 22.1 3 Noroeste 7 Noroeste 0 944.3 0.4 65
2019-07-30 01:00:00 23 5 Oeste 6 Oeste 0 944.5 1.6 60
2019-07-30 00:00:00 24.9 3 Sudeste 16 Noroeste 0 944.3 2.2 57
2019-07-29 23:00:00 25.9 0 Calma 13 Sur 0 943.9 2.5 53
2019-07-29 22:00:00 27.1 5 Sur 17 Sur 0 942.9 1.9 50
2019-07-29 21:00:00 28.5 11 Sur 28 Sur 0 942.1 1.1 46
2019-07-29 20:00:00 30.6 17 Sur 29 Sur 0 941.4 -0.1 41
2019-07-29 19:00:00 32.6 16 Sudeste 30 Sudeste 0 941 -1 37
2019-07-29 18:00:00 34.2 8 Sur 21 Sudeste 0 941 -1.4 34
2019-07-29 17:00:00 34.3 9 Sudeste 23 Sudeste 0 941.5 -1.4 35
2019-07-29 16:00:00 33.8 4 Sur 17 Sur 0 942 -1.6 36
2019-07-29 15:00:00 32.6 0 Calma 20 Sudeste 0 942.4 -1.3 38
2019-07-29 14:00:00 31.6 7 Sudeste 15 Sur 0 942.9 -0.9 41
2019-07-29 13:00:00 30 8 Sur 18 Nordeste 0 943.6 -0.4 45
2019-07-29 12:00:00 28.3 4 Sur 12 Sur 0 943.7 0 50
2019-07-29 11:00:00 25.8 3 Este 9 Sudeste 0 943.8 0.5 59
2019-07-29 10:00:00 23.7 2 Sudeste 8 Sudeste 0 944 0.9 70
2019-07-29 09:00:00 22 2 Sudeste 5 Sudeste 0 943.7 1 74
2019-07-29 08:00:00 19.3 0 Calma -- -- 0 943.3 0.7 80
2019-07-29 07:00:00 18.6 0 Calma 0 Calma 0 943.1 0.3 79
2019-07-29 06:00:00 19.3 0 Calma 2 Nordeste 0 942.7 -0.1 74
2019-07-29 05:00:00 19.3 0 Calma 0 Calma 0 942.6 -0.4 72
2019-07-29 04:00:00 19.8 0 Calma 5 Noroeste 0 942.8 -0.6 69
2019-07-29 03:00:00 20.7 2 Noroeste 4 Noroeste 0 942.8 -0.6 67
2019-07-29 02:00:00 21.6 0 Calma 5 Sudeste 0 943 0 66
2019-07-29 01:00:00 22.2 0 Calma 8 Este 0 943.4 1.2 64
2019-07-29 00:00:00 23.2 4 Este 10 Este 0 943.4 2.1 57
2019-07-28 23:00:00 24.4 3 Sudeste 22 Sudeste 0 943 2.6 49
2019-07-28 22:00:00 25.3 9 Sudeste 30 Sudeste 0 942.2 2.5 47
2019-07-28 21:00:00 26.6 15 Sudeste 30 Sudeste 0 941.3 1.4 45
2019-07-28 20:00:00 29.3 13 Este 29 Este 0 940.4 -0.1 42
2019-07-28 19:00:00 30.8 9 Nordeste 22 Nordeste 0 939.7 -1.4 38
2019-07-28 18:00:00 30.9 5 Norte 19 Sudeste 0 939.9 -1.7 37
2019-07-28 17:00:00 32 5 Sudoeste 21 Sudeste 0 940.5 -1.6 37
2019-07-28 16:00:00 30.9 5 Sudeste 22 Noroeste 0 941.1 -1.4 39
2019-07-28 15:00:00 29.2 3 Este 19 Este 0 941.6 -1.2 41
2019-07-28 14:00:00 28.7 7 Sudoeste 19 Sudoeste 0 942.1 -0.9 43
2019-07-28 13:00:00 27.6 6 Sur 20 Sudoeste 0 942.5 -0.5 45
2019-07-28 12:00:00 26.3 5 Oeste 21 Sudoeste 0 942.8 0.1 49
2019-07-28 11:00:00 24.9 9 Oeste 21 Oeste 0 943 0.5 53
2019-07-28 10:00:00 23.5 12 Oeste 23 Oeste 0 943 1.3 60
2019-07-28 09:00:00 21.5 13 Oeste 21 Oeste 0 942.7 1.2 70
2019-07-28 08:00:00 20 8 Oeste 36 Noroeste 0 942.5 1.3 72
2019-07-28 07:00:00 19.6 17 Oeste 29 Sudoeste 0 941.7 0.5 68
2019-07-28 06:00:00 20.5 15 Oeste 31 Oeste 0 941.5 0 64
2019-07-28 05:00:00 20.3 13 Sudoeste 24 Oeste 0 941.2 -0.3 62
2019-07-28 04:00:00 20.9 13 Sudoeste 25 Sudoeste 0 941.2 -0.4 59
2019-07-28 03:00:00 21 12 Sudoeste 29 Sudoeste 0 941.5 -0.2 59
2019-07-28 02:00:00 21.8 17 Sudoeste 38 Sudoeste 0 941.5 0.4 57
2019-07-28 01:00:00 22.1 19 Sudoeste 33 Sur 0 941.6 1.3 56
2019-07-28 00:00:00 22.6 22 Sudoeste 39 Sudoeste 0 941.7 2.6 54
2019-07-27 23:00:00 23.4 18 Sudoeste 40 Sudoeste 0 941.1 2.7 51
2019-07-26 12:00:00 30.6 3 Noroeste 19 Sudoeste 0 943.2 -0.8 40
2019-07-26 11:00:00 28.9 5 Oeste 10 Noroeste 0 943.8 -0.1 43
2019-07-26 10:00:00 26.1 0 Calma 6 Sudeste 0 944.1 0.3 51
2019-07-26 09:00:00 23.8 0 Calma 8 Sur 0 944 0.3 57
2019-07-26 08:00:00 22.1 4 Sudeste 6 Sudeste 0 943.9 0 61
2019-07-26 07:00:00 20.9 4 Sur 6 Sur 0 943.8 -0.7 62
2019-07-26 06:00:00 20 0 Calma 6 Sudoeste 0 943.7 -1.2 61
2019-07-26 05:00:00 20.9 0 Calma 6 Este 0 943.9 -1.5 60
2019-07-26 04:00:00 21.7 3 Este 5 Este 0 944.5 -1.4 59
2019-07-26 03:00:00 22.2 0 Calma 2 Nordeste 0 944.9 -1.1 59
2019-07-26 02:00:00 23.1 0 Calma 8 Oeste 0 945.4 -0.4 57
2019-07-26 01:00:00 24.2 4 Oeste 16 Oeste 0 945.9 0.7 53
2019-07-26 00:00:00 25.2 8 Oeste 21 Oeste 0 946 1.5 47
2019-07-25 23:00:00 26.3 13 Oeste 25 Oeste 0 945.8 1.6 42
2019-07-25 22:00:00 27.4 10 Oeste 24 Noroeste 0 945.2 1.1 37
2019-07-25 21:00:00 29.5 12 Oeste 27 Oeste 0 944.5 0.1 34
2019-07-25 20:00:00 31.2 15 Oeste 28 Oeste 0 944.2 -0.8 32
2019-07-25 19:00:00 33.3 10 Oeste 24 Oeste 0 944.1 -1.3 30
2019-07-25 18:00:00 33.8 11 Sudoeste 27 Sudoeste 0 944.4 -1.5 30
2019-07-25 17:00:00 34.4 15 Oeste 30 Oeste 0 945 -1.4 30
2019-07-25 16:00:00 34.7 10 Sudoeste 31 Oeste 0 945.4 -1.5 30
2019-07-25 15:00:00 34.4 11 Sudoeste 26 Oeste 0 945.9 -1.3 30
2019-07-25 14:00:00 33.3 14 Oeste 27 Oeste 0 946.4 -1.3 33
2019-07-25 13:00:00 31.6 9 Oeste 20 Oeste 0 946.9 -0.7 37
2019-07-25 12:00:00 29.8 8 Oeste 19 Oeste 0 947.2 -0.3 39
2019-07-25 11:00:00 27.9 5 Sudoeste 13 Oeste 0 947.7 0.3 42
2019-07-25 10:00:00 26.3 3 Oeste 7 Oeste 0 947.6 0.7 46
2019-07-25 09:00:00 24.4 0 Calma 5 Este 0 947.5 0.8 49
2019-07-25 08:00:00 21 4 Este 8 Este 0 947.4 0.4 55
2019-07-25 07:00:00 19.3 0 Calma 13 Este 0 946.9 -0.3 55
2019-07-25 06:00:00 20.7 0 Calma 7 Este 0 946.7 -0.7 53
2019-07-25 05:00:00 21.5 5 Este 7 Este 0 947 -0.5 52
2019-07-25 04:00:00 22 0 Calma 3 Este 0 947.2 -0.4 51
2019-07-25 03:00:00 22.2 0 Calma 3 Oeste 0 947.4 -0.2 50
2019-07-25 02:00:00 23.2 0 Calma 9 Oeste 0 947.5 0.1 46
2019-07-25 01:00:00 24 2 Noroeste 18 Oeste 0 947.6 0.8 42
2019-07-25 00:00:00 25.2 8 Oeste 15 Sudoeste 0 947.6 1.1 40
2019-07-24 23:00:00 26.5 5 Oeste 15 Oeste 0 947.4 1.3 35
2019-07-24 22:00:00 28.1 9 Oeste 24 Oeste 0 946.8 0.8 32
2019-07-24 21:00:00 29.8 10 Sudoeste 27 Oeste 0 946.5 0 31
2019-07-24 20:00:00 31.9 12 Sudoeste 32 Oeste 0 946.1 -0.6 28
2019-07-24 19:00:00 33.7 10 Sudoeste 30 Sudoeste 0 946 -0.9 27
2019-07-24 18:00:00 34 10 Sudoeste 30 Sudoeste 0 946.5 -0.9 27
2019-07-24 17:00:00 35.1 10 Sur 35 Sudoeste 0 946.7 -1.2 27
2019-07-24 16:00:00 35.3 15 Sudoeste 31 Sudoeste 0 946.9 -1.4 28
2019-07-24 15:00:00 34.6 10 Sur 32 Sudoeste 0 947.4 -1.3 30
2019-07-24 14:00:00 33.5 15 Sudoeste 28 Sudoeste 0 947.9 -1 32
2019-07-24 13:00:00 31.5 11 Sudoeste 21 Sudoeste 0 948.3 -0.5 34
2019-07-24 12:00:00 30.7 8 Sudoeste 18 Sudoeste 0 948.7 0.1 36
2019-07-24 11:00:00 28.2 3 Sudoeste 11 Sudoeste 0 948.9 0.5 40
2019-07-24 10:00:00 26.5 0 Calma 9 Sudoeste 0 948.8 0.7 42
2019-07-24 09:00:00 24.1 0 Calma 4 Sudeste 0 948.6 0.4 46
2019-07-24 08:00:00 21.8 2 Este 8 Nordeste 0 948.4 0.1 47
2019-07-24 07:00:00 20.6 4 Nordeste 7 Este 0 948.1 -0.3 47
2019-07-24 06:00:00 21 4 Este 7 Este 0 948.2 -0.6 46
2019-07-24 05:00:00 21.1 0 Calma 6 Nordeste 0 948.3 -0.6 45
2019-07-24 04:00:00 22.4 0 Calma 4 Noroeste 0 948.4 -0.7 43
2019-07-24 03:00:00 22.1 0 Calma 4 Noroeste 0 948.8 -0.1 42
2019-07-24 02:00:00 23.9 0 Calma 4 Sudeste 0 948.9 0.1 38
2019-07-24 01:00:00 25.5 0 Calma 6 Sudeste 0 949.1 0.8 35
2019-07-24 00:00:00 26 0 Calma 7 Sur 0 948.9 0.9 35
2019-07-23 23:00:00 26.8 2 Este 9 Sudoeste 0 948.8 1 32
2019-07-23 22:00:00 28.4 4 Sur 20 Sudoeste 0 948.3 0.5 30
2019-07-23 21:00:00 30.1 7 Sudoeste 26 Sur 0 948 0 28
2019-07-23 20:00:00 32.1 14 Sudoeste 29 Sudoeste 0 947.8 -0.4 26
2019-07-23 19:00:00 33.2 16 Sudoeste 31 Sudoeste 0 947.8 -0.7 25
2019-07-23 18:00:00 33.4 15 Sudoeste 30 Sudoeste 0 948 -1 26
2019-07-23 17:00:00 34.8 16 Sudoeste 31 Sudoeste 0 948.2 -1.1 25
2019-07-23 16:00:00 35.1 12 Sur 30 Sudoeste 0 948.5 -1.3 25
2019-07-23 15:00:00 34.5 13 Sudoeste 33 Sudoeste 0 949 -1.1 28
2019-07-23 14:00:00 33.5 10 Sudoeste 27 Sudoeste 0 949.3 -1 30
2019-07-23 13:00:00 31.8 8 Sudoeste 22 Sur 0 949.8 -0.8 32
2019-07-23 12:00:00 30 7 Sur 16 Sur 0 950.1 -0.4 36
2019-07-23 11:00:00 28 3 Sur 10 Sur 0 950.3 0 42
2019-07-23 10:00:00 26.4 2 Sudoeste 8 Este 0 950.6 0.4 44
2019-07-23 09:00:00 24 3 Este 7 Nordeste 0 950.5 0.4 53
2019-07-23 08:00:00 21 5 Este 9 Este 0 950.3 0 60
2019-07-23 07:00:00 19.9 4 Nordeste 8 Nordeste 0 950.2 -0.6 61
2019-07-23 06:00:00 19.9 6 Este 7 Nordeste 0 950.1 -0.8 59
2019-07-23 05:00:00 20.3 3 Nordeste 5 Nordeste 0 950.3 -1 57
2019-07-23 04:00:00 20.8 0 Calma 0 Calma 0 950.8 -1.1 55
2019-07-23 03:00:00 21.7 0 Calma 3 Este 0 950.9 -0.8 52
2019-07-23 02:00:00 22.4 0 Calma 5 Noroeste 0 951.3 -0.3 49
2019-07-23 01:00:00 22.7 0 Calma 11 Sur 0 951.9 0.6 47
2019-07-23 00:00:00 24.3 6 Sudoeste 12 Sudoeste 0 951.7 0.8 44
2019-07-22 23:00:00 25.4 5 Sudoeste 15 Sudoeste 0 951.6 1.2 38
2019-07-22 22:00:00 26.8 6 Sudoeste 22 Sudoeste 0 951.3 0.9 33
2019-07-22 21:00:00 29 8 Sur 25 Sur 0 950.9 0.2 30
2019-07-22 20:00:00 31 15 Sudoeste 28 Sudoeste 0 950.4 -0.6 27
2019-07-22 19:00:00 32.8 17 Sudoeste 30 Sur 0 950.4 -0.8 25
2019-07-22 18:00:00 33.8 12 Sur 31 Sudoeste 0 950.7 -1.1 26
2019-07-22 17:00:00 34.4 14 Sudoeste 31 Sudoeste 0 951 -1.3 27
2019-07-22 16:00:00 33.9 12 Sur 30 Sur 0 951.2 -1.5 30
2019-07-22 15:00:00 32.7 11 Sur 27 Sur 0 951.8 -1.2 37
2019-07-22 14:00:00 31.9 10 Sur 27 Sudoeste 0 952.3 -0.7 39
2019-07-22 13:00:00 30.4 10 Sudoeste 28 Sudoeste 0 952.7 0 44
2019-07-22 12:00:00 28.6 11 Sudoeste 20 Sur 0 953 0.1 49
2019-07-22 11:00:00 26.4 9 Sur 16 Sur 0 953 0.5 54
2019-07-22 10:00:00 25 6 Sudeste 11 Sudeste 0 952.7 0.5 61
2019-07-22 09:00:00 23.2 6 Este 10 Nordeste 0 952.9 1 69
2019-07-22 08:00:00 21.1 5 Nordeste 9 Nordeste 0 952.5 0.5 75
2019-07-22 07:00:00 20.5 6 Nordeste 9 Nordeste 0 952.2 0 74
2019-07-22 06:00:00 20.9 5 Nordeste 8 Nordeste 0 951.9 -0.6 72
2019-07-22 05:00:00 21.3 4 Nordeste 7 Nordeste 0 952 -1 70
2019-07-22 04:00:00 22.1 0 Calma 5 Nordeste 0 952.2 -1 65
2019-07-22 03:00:00 22.5 0 Calma 4 Sudoeste 0 952.5 -0.8 65
2019-07-22 02:00:00 22.6 0 Calma 9 Oeste 0 953 -0.1 65
2019-07-22 01:00:00 23.4 5 Oeste 14 Sur 0 953.2 1.4 62
2019-07-22 00:00:00 24.2 5 Sudoeste 17 Sudoeste 0 953.3 2.7 57
2019-07-21 23:00:00 25.3 9 Sur 18 Sur 0 953.1 3.4 52
2019-07-21 22:00:00 26.9 8 Sur 26 Sur 0 951.8 2.4 42
2019-07-21 21:00:00 28.7 12 Sur 27 Sur 0 950.6 0.8 36
2019-07-21 20:00:00 31 13 Sur 26 Sudoeste 0 949.7 -0.1 31
2019-07-21 19:00:00 32.6 15 Sur 28 Sur 0 949.4 -0.7 28
2019-07-21 18:00:00 33.5 18 Sur 33 Sur 0 949.8 -0.6 27
2019-07-21 17:00:00 34.4 15 Sur 29 Sudoeste 0 949.8 -0.7 28
2019-07-21 16:00:00 34.2 9 Sur 28 Sur 0 950.1 -0.8 31
2019-07-21 15:00:00 33.1 8 Sudeste 28 Sur 0 950.4 -0.7 34
2019-07-21 14:00:00 31.9 9 Este 28 Este 0 950.5 -0.2 37
2019-07-21 13:00:00 31.3 8 Sudeste 22 Este 0 950.9 -0.1 39
2019-07-21 12:00:00 28.7 8 Este 21 Este 0 951.1 0.6 47
2019-07-21 11:00:00 26.8 9 Nordeste 19 Nordeste 0 950.7 0.7 54
2019-07-21 10:00:00 25 8 Nordeste 15 Este 0 951 1.5 59
2019-07-21 09:00:00 23.3 5 Nordeste 12 Norte 0 950.5 0.9 64
2019-07-21 08:00:00 21.4 3 Norte 10 Norte 0 950 0.7 63
2019-07-21 07:00:00 20.3 6 Norte 11 Norte 0 949.5 -0.2 63
2019-07-21 06:00:00 20.8 0 Calma 9 Norte 0 949.6 0.1 61
2019-07-21 05:00:00 20.8 6 Norte 9 Norte 0 949.3 -0.5 61
2019-07-21 04:00:00 21.1 0 Calma 6 Oeste 0 949.7 -0.6 60
2019-07-21 03:00:00 21 6 Oeste 8 Oeste 0 949.5 -0.6 58
2019-07-21 02:00:00 21.7 5 Oeste 5 Oeste 0 949.8 -0.1 54
2019-07-21 01:00:00 23.1 3 Sur 5 Sur 0 950.3 1.6 49
2019-07-21 00:00:00 24.5 5 Sudeste 15 Sur 0 950.1 2.3 46